Latest Weather Observations for Wyndham Airport

IDW60801

Issued at 9:33 pm WST Friday 15 November 2019 (issued every 10 minutes, with the page automatically refreshed every 10 minutes)

About weather observations | Map of weather stations | Latest weather observations for WA | Other Formats
Station Details ID: 001006 Name: WYNDHAM AERO Lat: -15.51 Lon: 128.15 Height: 3.8 m
Data from the previous 72 hours. | See also: Recent months at Wyndham Airport
Date/Time
WST
Temp
°C
App
Temp
°C
Dew
Point
°C
Rel
Hum
%
Delta-T
°C
Wind Press
QNH
hPa
Press
MSL
hPa
Rain since
9am
mm
Dir  Spd
km/h
Gust
km/h
Spd
kts
Gust
kts
15/09:30pm 29.6 28.3 15.7 43 8.6 ESE 17 17 9 9 1009.1 1009.1 0.0
15/09:00pm 30.0 28.2 12.0 33 10.5 ESE 13 15 7 8 1008.8 1008.8 0.0
15/08:30pm 32.2 31.5 11.9 29 11.9 E 7 11 4 6 1008.6 1008.6 0.0
15/08:00pm 33.3 32.5 11.8 27 12.7 SSW 7 9 4 5 1008.4 1008.4 0.0
15/07:30pm 34.5 33.3 11.6 25 13.5 WSW 9 13 5 7 1008.0 1008.0 0.0
15/07:00pm 35.9 32.8 11.5 23 14.5 N 19 24 10 13 1007.6 1007.6 0.0
15/06:30pm 36.0 32.9 12.3 24 14.2 N 20 26 11 14 1007.3 1007.3 0.0
15/06:00pm 36.1 32.1 11.7 23 14.6 N 24 30 13 16 1006.9 1006.9 0.0
15/05:30pm 36.8 32.0 11.6 22 15.0 N 28 37 15 20 1006.6 1006.6 0.0
15/05:00pm 37.6 32.8 11.5 21 15.6 N 28 35 15 19 1006.2 1006.2 0.0
15/04:30pm 39.0 33.4 8.6 16 17.5 N 28 37 15 20 1006.0 1006.0 0.0
15/04:00pm 39.3 33.7 11.4 19 16.8 N 32 41 17 22 1005.8 1005.8 0.0
15/03:30pm 40.7 38.5 13.3 20 17.0 N 17 30 9 16 1005.8 1005.8 0.0
15/03:00pm 41.0 38.6 12.8 19 17.4 NNW 17 28 9 15 1005.8 1005.8 0.0
15/02:30pm 42.9 38.1 4.8 10 21.1 E 19 30 10 16 1006.1 1006.1 0.0
15/02:00pm 43.2 38.3 5.0 10 21.3 ENE 20 33 11 18 1006.1 1006.1 0.0
15/01:30pm 43.4 37.4 5.2 10 21.4 ENE 26 41 14 22 1006.3 1006.3 0.0
15/01:00pm 42.7 37.4 3.1 9 21.5 E 20 33 11 18 1006.8 1006.8 0.0
15/12:30pm 43.2 38.8 5.0 10 21.3 ENE 17 32 9 17 1007.1 1007.1 0.0
15/12:00pm 42.0 37.6 6.7 12 20.1 NE 19 33 10 18 1007.6 1007.6 0.0
15/11:30am 42.3 37.8 7.0 12 20.2 E 20 35 11 19 1008.2 1008.2 0.0
15/11:00am 40.8 39.1 10.0 16 18.3 ENE 9 17 5 9 1008.9 1008.9 0.0
15/10:30am 41.2 38.1 7.3 13 19.4 E 13 24 7 13 1009.3 1009.3 0.0
15/10:00am 39.4 38.3 13.0 21 16.2 E 11 17 6 9 1009.7 1009.7 0.0
15/09:30am 38.3 38.1 14.8 25 14.8 NE 9 19 5 10 1010.0 1010.0 0.0
15/09:00am 36.3 38.4 19.3 37 11.3 WNW 7 11 4 6 1010.2 1010.2 0.0
15/08:30am 34.5 37.1 20.5 44 9.4 SW 7 11 4 6 1010.4 1010.4 0.0
15/08:00am 33.3 36.4 22.1 52 7.6 SW 9 11 5 6 1010.3 1010.3 0.0
15/07:30am 32.3 36.4 23.0 58 6.4 ESE 6 9 3 5 1010.3 1010.3 0.0
15/07:00am 30.9 35.1 23.5 64 5.1 ESE 7 9 4 5 1010.2 1010.2 0.0
15/06:30am 29.4 33.3 24.3 74 3.5 E 11 13 6 7 1010.2 1010.2 0.0
15/06:00am 28.3 32.4 24.5 80 2.6 ESE 11 11 6 6 1010.1 1010.1 0.0
15/05:30am 26.4 30.2 23.5 84 2.0 E 9 11 5 6 1009.6 1009.6 0.0
15/05:00am 25.5 28.5 22.6 84 2.0 E 11 11 6 6 1009.1 1009.1 0.0
15/04:30am 25.8 28.8 22.7 83 2.1 ESE 11 15 6 8 1008.9 1008.9 0.0
15/04:00am 26.3 28.8 23.2 83 2.1 ESE 15 17 8 9 1008.7 1008.7 0.0
15/03:30am 26.6 29.6 23.3 82 2.3 E 13 17 7 9 1008.4 1008.4 0.0
15/03:00am 26.7 29.5 23.0 80 2.5 ESE 13 17 7 9 1008.3 1008.3 0.0
15/02:30am 27.2 29.7 23.2 79 2.7 E 15 17 8 9 1008.4 1008.4 0.0
15/02:00am 27.4 29.4 23.0 77 3.0 ESE 17 19 9 10 1008.2 1008.2 0.0
15/01:30am 27.6 29.3 23.0 76 3.1 ESE 19 20 10 11 1008.1 1008.1 0.0
15/01:00am 27.9 29.5 23.3 76 3.2 ESE 20 24 11 13 1008.2 1008.2 0.0
15/12:30am 28.2 30.0 23.6 76 3.2 SE 20 26 11 14 1008.3 1008.3 0.0
15/12:00am 28.0 29.4 22.9 74 3.5 E 20 24 11 13 1008.2 1008.2 0.0
 
Date/Time
WST
Temp
°C
App
Temp
°C
Dew
Point
°C
Rel
Hum
%
Delta-T
°C
Wind Press
QNH
hPa
Press
MSL
hPa
Rain since
9am
mm
Dir  Spd
km/h
Gust
km/h
Spd
kts
Gust
kts
14/11:30pm 28.1 29.4 22.3 70 3.9 ESE 19 20 10 11 1008.1 1008.1 0.0
14/11:00pm 28.4 29.7 22.4 70 4.1 ESE 19 20 10 11 1008.2 1008.2 0.0
14/10:30pm 28.6 30.0 21.9 67 4.5 ESE 17 20 9 11 1008.5 1008.5 0.0
14/10:00pm 29.3 31.2 22.0 64 4.9 ESE 15 19 8 10 1008.5 1008.5 0.0
14/09:30pm 29.7 30.8 20.5 57 6.1 E 15 17 8 9 1008.5 1008.5 0.0
14/09:00pm 30.9 31.4 19.3 50 7.6 ESE 15 17 8 9 1008.2 1008.2 0.0
14/08:30pm 31.3 30.6 14.4 35 10.3 S 11 13 6 7 1008.1 1008.1 0.0
14/08:00pm 32.4 33.0 15.8 36 10.4 S 7 11 4 6 1007.9 1007.9 0.0
14/07:30pm 33.9 34.5 15.4 33 11.5 WSW 6 7 3 4 1007.7 1007.7 0.0
14/07:00pm 34.0 33.5 15.9 33 11.4 WNW 13 17 7 9 1007.6 1007.6 0.0
14/06:30pm 34.2 32.1 16.1 34 11.4 N 22 30 12 16 1007.1 1007.1 0.0
14/06:00pm 34.2 32.4 17.8 37 10.6 N 24 32 13 17 1006.7 1006.7 0.0
14/05:30pm 35.7 32.7 14.9 29 13.0 N 24 33 13 18 1006.4 1006.4 0.0
14/05:00pm 37.2 32.5 11.9 22 15.2 N 28 39 15 21 1006.1 1006.1 0.0
14/04:30pm 37.9 33.6 13.2 23 15.1 N 28 37 15 20 1005.8 1005.8 0.0
14/04:00pm 38.5 34.6 15.6 26 14.6 N 30 37 16 20 1005.6 1005.6 0.0
14/03:30pm 39.5 36.3 16.4 25 14.9 NNW 28 39 15 21 1005.4 1005.4 0.0
14/03:00pm 39.2 37.0 16.8 27 14.5 N 24 41 13 22 1005.6 1005.6 0.0
14/02:30pm 38.9 36.7 15.9 25 14.7 NNW 22 35 12 19 1005.8 1005.8 0.0
14/02:00pm 40.9 39.7 17.0 25 15.6 NNW 19 28 10 15 1006.3 1006.3 0.0
14/01:30pm 40.5 39.7 17.9 27 14.9 NNW 19 30 10 16 1006.8 1006.8 0.0
14/01:00pm 40.6 40.6 17.3 25 15.3 NE 13 24 7 13 1007.3 1007.3 0.0
14/12:30pm 40.6 38.5 14.7 21 16.4 ENE 19 28 10 15 1007.9 1007.9 0.0
14/12:00pm 40.1 39.1 15.7 24 15.6 NNE 15 26 8 14 1008.5 1008.5 0.0
14/11:30am 39.7 38.9 16.0 25 15.2 NNE 15 26 8 14 1009.1 1009.1 0.0
14/11:00am 38.4 38.6 17.7 29 13.5 NE 13 24 7 13 1009.8 1009.8 0.0
14/10:30am 38.0 38.3 17.9 30 13.1 ESE 13 20 7 11 1010.3 1010.3 0.0
14/10:00am 37.5 38.7 19.9 35 11.8 ESE 13 24 7 13 1010.8 1010.8 0.0
14/09:30am 35.1 37.4 20.6 42 9.7 E 9 15 5 8 1011.2 1011.2 0.0
14/09:00am 35.0 37.4 21.6 45 9.1 ENE 11 22 6 12 1011.6 1011.6 -
14/08:30am 33.4 36.1 22.2 52 7.7 E 11 19 6 10 1011.8 1011.8 -
14/08:00am 32.9 35.7 23.0 56 6.8 E 13 20 7 11 1012.1 1012.1 -
14/07:30am 31.4 33.8 23.0 61 5.8 E 15 24 8 13 1012.0 1012.0 -
14/07:00am 29.9 32.5 22.6 65 5.0 ESE 13 17 7 9 1011.6 1011.6 -
14/06:30am 29.2 31.5 22.7 68 4.4 E 15 19 8 10 1011.5 1011.5 -
14/06:00am 28.3 30.1 22.5 71 3.9 E 17 20 9 11 1011.5 1011.5 -
14/05:30am 27.1 29.0 22.1 74 3.4 ESE 15 17 8 9 1010.9 1010.9 -
14/05:00am 26.3 28.1 21.9 77 2.9 ESE 15 19 8 10 1010.3 1010.3 -
14/04:30am 26.3 27.6 21.7 76 3.1 E 17 19 9 10 1009.9 1009.9 -
14/04:00am 26.5 27.9 21.9 76 3.1 E 17 19 9 10 1009.6 1009.6 -
14/03:30am 26.6 28.0 21.8 75 3.2 ESE 17 20 9 11 1009.2 1009.2 -
14/03:00am 26.5 27.6 21.3 73 3.5 E 17 20 9 11 1008.7 1008.7 0.0
14/02:30am 26.9 27.6 21.6 72 3.5 ESE 20 24 11 13 1008.6 1008.6 -
14/02:00am 27.0 27.5 22.0 74 3.4 ESE 22 26 12 14 1008.4 1008.4 -
14/01:30am 27.1 28.3 22.1 74 3.4 ESE 19 22 10 12 1008.2 1008.2 -
14/01:00am 27.2 28.4 22.2 74 3.4 ESE 19 22 10 12 1008.2 1008.2 -
14/12:30am 27.2 28.5 21.7 72 3.7 ESE 17 20 9 11 1008.3 1008.3 -
14/12:00am 27.3 29.2 22.0 73 3.6 E 15 19 8 10 1008.4 1008.4 -
 
Date/Time
WST
Temp
°C
App
Temp
°C
Dew
Point
°C
Rel
Hum
%
Delta-T
°C
Wind Press
QNH
hPa
Press
MSL
hPa
Rain since
9am
mm
Dir  Spd
km/h
Gust
km/h
Spd
kts
Gust
kts
13/11:30pm 27.9 29.7 21.9 70 4.0 ESE 15 17 8 9 1008.6 1008.6 -
13/11:00pm 28.4 29.4 22.2 69 4.2 ESE 20 24 11 13 1008.9 1008.9 -
13/10:30pm 28.6 29.5 21.6 66 4.7 ESE 19 22 10 12 1009.3 1009.3 -
13/10:00pm 29.1 31.1 21.6 64 5.0 ESE 13 19 7 10 1009.6 1009.6 -
13/09:30pm 29.9 31.3 21.0 59 5.9 ENE 15 20 8 11 1009.6 1009.6 -
13/09:00pm 30.6 31.5 20.8 56 6.5 E 17 22 9 12 1009.5 1009.5 -
13/08:30pm 30.6 32.6 19.9 52 7.0 SE 9 13 5 7 1009.0 1009.0 -
13/08:00pm 30.2 31.7 18.0 48 7.8 SSE 7 9 4 5 1008.6 1008.6 -
13/07:30pm 32.1 32.1 17.2 41 9.5 NE 13 17 7 9 1008.3 1008.3 -
13/07:00pm 33.7 34.4 16.1 34 11.1 SSE 7 13 4 7 1007.8 1007.8 -
13/06:30pm 33.4 32.1 16.7 36 10.6 NNE 19 30 10 16 1007.6 1007.6 -
13/06:00pm 34.1 31.0 16.5 35 11.2 N 28 37 15 20 1007.0 1007.0 -
13/05:30pm 35.0 33.3 16.3 32 11.9 N 20 30 11 16 1006.8 1006.8 -
13/04:30pm 37.7 34.4 14.9 26 14.3 N 26 35 14 19 1006.4 1006.4 0.0
13/04:00pm 38.8 34.7 13.9 22 15.5 NNE 28 37 15 20 1006.2 1006.2 0.0
13/03:30pm 39.9 35.1 14.1 21 16.1 N 32 39 17 21 1006.0 1006.0 0.0
13/03:00pm 40.6 38.2 15.4 22 16.1 N 22 33 12 18 1006.0 1006.0 0.0
13/02:30pm 40.5 36.3 14.6 21 16.3 N 30 41 16 22 1006.3 1006.3 0.0
13/02:21pm 40.9 37.7 16.3 23 15.9 N 28 41 15 22 1006.3 1006.3 0.0
13/02:00pm 40.7 38.7 12.6 19 17.3 NE 15 30 8 16 1006.7 1006.7 0.0
13/01:30pm 42.3 40.0 14.6 19 17.6 NNW 20 32 11 17 1006.8 1006.8 0.0
13/01:00pm 42.7 40.5 9.5 14 19.7 NNE 11 20 6 11 1007.2 1007.2 0.0
13/12:30pm 41.7 38.3 7.7 13 19.6 ENE 15 24 8 13 1008.0 1008.0 0.0
13/12:00pm 40.9 39.0 9.2 15 18.6 ESE 9 17 5 9 1008.4 1008.4 0.0
13/11:30am 40.6 38.2 9.9 16 18.1 ENE 13 20 7 11 1009.0 1009.0 0.0
13/11:00am 40.7 37.5 10.0 16 18.2 NNE 17 24 9 13 1009.4 1009.4 0.0
13/10:30am 40.1 37.4 10.4 17 17.6 NE 15 24 8 13 1010.0 1010.0 0.0
13/10:00am 39.0 36.3 10.4 18 16.9 N 15 20 8 11 1010.3 1010.3 0.0
13/09:30am 38.0 36.5 10.4 19 16.3 NE 9 26 5 14 1010.6 1010.6 0.0
13/09:00am 36.5 35.2 9.9 20 15.5 WSW 7 11 4 6 1010.8 1010.8 0.0
13/08:30am 35.8 34.2 10.1 21 14.9 WNW 9 15 5 8 1010.9 1010.9 0.0
13/08:00am 34.9 32.9 10.0 22 14.4 WNW 11 17 6 9 1011.3 1011.3 0.0
13/07:30am 34.6 31.9 10.4 23 14.1 WSW 15 22 8 12 1011.0 1011.0 0.0
13/07:00am 33.9 31.0 11.1 25 13.4 W 17 22 9 12 1010.7 1010.7 0.0
13/06:30am 32.4 30.1 11.6 28 12.2 WNW 15 19 8 10 1010.5 1010.5 0.0
13/06:00am 31.3 29.4 11.7 30 11.5 WNW 13 15 7 8 1010.4 1010.4 0.0
13/05:30am 28.7 27.0 11.3 34 10.0 WNW 11 13 6 7 1010.2 1010.2 0.0
13/05:00am 27.2 25.3 11.7 38 8.9 WNW 13 15 7 8 1009.9 1009.9 0.0
13/04:30am 26.8 25.1 11.3 38 8.8 WNW 11 11 6 6 1009.7 1009.7 0.0
13/04:00am 27.1 25.1 11.6 38 8.9 WNW 13 13 7 7 1009.4 1009.4 0.0
13/03:30am 26.9 25.5 13.3 43 8.0 WNW 13 13 7 7 1009.1 1009.1 0.0
13/03:00am 27.4 26.9 13.7 43 8.1 W 9 11 5 6 1008.8 1008.8 0.0
13/02:30am 29.0 26.4 12.0 35 9.9 W 17 17 9 9 1008.7 1008.7 0.0
13/02:00am 28.5 28.6 15.4 45 8.0 W 9 11 5 6 1008.6 1008.6 0.0
13/01:30am 28.3 29.1 15.9 47 7.6 W 6 7 3 4 1008.9 1008.9 0.0
13/01:00am 27.6 27.7 15.6 48 7.3 W 9 11 5 6 1009.1 1009.1 0.0
13/12:30am 27.2 28.8 18.2 58 5.7 ESE 7 7 4 4 1009.3 1009.3 0.0
13/12:00am 27.5 29.9 18.8 59 5.6 ESE 4 7 2 4 1009.8 1009.8 0.0
 
Date/Time
WST
Temp
°C
App
Temp
°C
Dew
Point
°C
Rel
Hum
%
Delta-T
°C
Wind Press
QNH
hPa
Press
MSL
hPa
Rain since
9am
mm
Dir  Spd
km/h
Gust
km/h
Spd
kts
Gust
kts
12/11:30pm 29.0 30.6 17.8 50 7.1 ESE 6 7 3 4 1009.9 1009.9 0.0
12/11:00pm 28.0 29.5 18.1 55 6.3 ESE 7 11 4 6 1010.3 1010.3 0.0
12/10:30pm 29.7 31.5 18.2 50 7.4 ESE 6 11 3 6 1010.7 1010.7 0.0
12/10:00pm 29.8 30.2 18.9 52 7.1 ESE 15 19 8 10 1010.9 1010.9 0.0

Other formats

Comma delimited format used in spreadsheet applications
http://www.bom.gov.au/fwo/IDW60801/IDW60801.95214.axf

JavaScript Object Notation format (JSON) in row-major order
http://www.bom.gov.au/fwo/IDW60801/IDW60801.95214.json

Data quality

Most of these data are generated automatically and are frequently updated. Quality checks on data are not normally performed. It is possible for incorrect values to appear. Refer to information at About Latest Weather Observations and please check the disclaimer before using these data.